createdAt,value
2022-08-05T00:02:07.827Z,13.77
2022-08-05T00:04:40.283Z,14.85
2022-08-05T00:07:27.362Z,17.67
2022-08-05T00:09:58.809Z,19.60
2022-08-05T00:12:31.946Z,16.73
2022-08-05T00:14:59.781Z,18.77
2022-08-05T00:22:29.466Z,14.20
2022-08-05T00:24:59.441Z,14.98
2022-08-05T00:27:36.206Z,14.20
2022-08-05T00:30:11.501Z,16.70
2022-08-05T00:32:40.564Z,17.13
2022-08-05T00:35:09.572Z,16.50
2022-08-05T00:40:29.582Z,16.33
2022-08-05T00:43:01.627Z,19.42
2022-08-05T00:45:42.891Z,20.20
2022-08-05T00:48:18.125Z,15.98
2022-08-05T00:50:54.993Z,20.02
2022-08-05T00:53:45.353Z,16.50
2022-08-05T00:56:12.847Z,18.63
2022-08-05T01:01:48.111Z,20.40
2022-08-05T01:04:20.202Z,17.40
2022-08-05T01:06:55.144Z,17.55
2022-08-05T01:09:22.840Z,22.10
2022-08-05T01:11:52.859Z,20.27
2022-08-05T01:14:45.237Z,18.70
2022-08-05T01:17:39.903Z,17.73
2022-08-05T01:25:52.345Z,15.60
2022-08-05T01:28:39.370Z,15.45
2022-08-05T01:31:29.704Z,17.60
2022-08-05T01:34:08.868Z,17.33
2022-08-05T01:36:47.106Z,16.48
2022-08-05T01:39:34.517Z,17.33
2022-08-05T01:44:56.253Z,18.55
2022-08-05T01:47:38.894Z,16.17
2022-08-05T01:50:14.976Z,17.35
2022-08-05T01:52:59.953Z,17.88
2022-08-05T01:55:30.575Z,18.90
2022-08-05T01:58:29.257Z,18.23
2022-08-05T02:06:37.777Z,17.15
2022-08-05T02:09:08.186Z,14.57
2022-08-05T02:12:03.599Z,16.63
2022-08-05T02:14:34.385Z,17.15
2022-08-05T02:18:28.478Z,16.88
2022-08-05T02:20:24.611Z,18.45
2022-08-05T02:23:03.423Z,15.63
2022-08-05T02:30:54.125Z,16.55
2022-08-05T02:33:38.648Z,15.52
2022-08-05T02:36:15.555Z,13.48
2022-08-05T02:38:52.923Z,23.48
2022-08-05T02:41:28.953Z,19.27
2022-08-05T02:44:13.152Z,21.13
2022-08-05T02:52:25.928Z,14.32
2022-08-05T02:55:06.551Z,16.83
2022-08-05T03:00:29.147Z,23.27
2022-08-05T03:02:59.919Z,20.23
2022-08-05T03:06:54.422Z,15.13
2022-08-05T03:08:26.926Z,20.52
2022-08-05T03:14:46.104Z,18.48
2022-08-05T03:17:15.420Z,23.10
2022-08-05T03:19:42.791Z,23.65
2022-08-05T03:22:16.686Z,17.90
2022-08-05T03:24:50.702Z,19.17
2022-08-05T03:27:21.710Z,27.70
2022-08-05T03:30:08.121Z,19.23
2022-08-05T03:37:46.202Z,20.50
2022-08-05T03:40:24.427Z,20.05
2022-08-05T03:43:01.474Z,18.95
2022-08-05T03:45:57.861Z,19.38
2022-08-05T03:48:29.860Z,28.45
2022-08-05T03:52:37.866Z,18.50
2022-08-05T03:55:50.404Z,23.00
2022-08-05T04:02:52.285Z,19.20
2022-08-05T04:05:33.280Z,20.13
2022-08-05T04:08:29.608Z,30.50
2022-08-05T04:10:59.516Z,25.45
2022-08-05T04:13:51.161Z,18.52
2022-08-05T04:16:24.319Z,19.17
2022-08-05T04:19:00.908Z,19.85
2022-08-05T04:26:38.696Z,26.95
2022-08-05T04:29:08.341Z,21.42
2022-08-05T04:31:38.695Z,22.52
2022-08-05T04:36:56.050Z,24.27
2022-08-05T04:39:27.567Z,25.70
2022-08-05T04:41:55.536Z,21.48
2022-08-05T04:49:38.415Z,28.83
2022-08-05T04:52:19.499Z,19.27
2022-08-05T04:54:49.437Z,22.20
2022-08-05T04:57:19.171Z,28.27
2022-08-05T04:59:49.725Z,24.38
2022-08-05T05:02:36.520Z,29.42
2022-08-05T05:05:26.128Z,21.40
2022-08-05T05:13:04.220Z,26.13
2022-08-05T05:15:56.481Z,25.85
2022-08-05T05:18:31.158Z,24.40
2022-08-05T05:21:03.332Z,20.98
2022-08-05T05:23:39.228Z,28.70
2022-08-05T05:26:28.601Z,20.88
2022-08-05T05:29:00.655Z,22.05
2022-08-05T05:38:59.137Z,24.83
2022-08-05T05:41:40.383Z,24.02
2022-08-05T05:44:35.875Z,22.17
2022-08-05T05:47:04.251Z,22.90
2022-08-05T05:49:33.115Z,23.10
2022-08-05T05:52:01.186Z,21.95
2022-08-05T05:54:50.835Z,26.00
2022-08-05T06:01:13.050Z,23.95
2022-08-05T06:04:01.555Z,23.42
2022-08-05T06:06:33.253Z,19.25
2022-08-05T06:09:04.278Z,28.88
2022-08-05T06:11:35.059Z,21.10
2022-08-05T06:14:08.465Z,19.80
2022-08-05T06:16:37.553Z,20.65
2022-08-05T06:21:49.724Z,18.58
2022-08-05T06:24:25.658Z,23.73
2022-08-05T06:26:55.496Z,19.33
2022-08-05T06:29:48.993Z,25.58
2022-08-05T06:32:25.146Z,24.10
2022-08-05T06:34:59.597Z,20.92
2022-08-05T06:37:55.587Z,23.98
2022-08-05T06:44:10.055Z,26.75
2022-08-05T06:46:39.514Z,21.35
2022-08-05T06:49:10.014Z,27.17
2022-08-05T06:51:40.993Z,18.23
2022-08-05T06:54:10.029Z,19.65
2022-08-05T06:56:54.387Z,24.38
2022-08-05T06:59:22.660Z,16.45
2022-08-05T07:04:30.150Z,19.13
2022-08-05T07:06:59.258Z,15.25
2022-08-05T07:09:32.400Z,15.50
2022-08-05T07:12:08.278Z,23.57
2022-08-05T07:14:54.169Z,17.37
2022-08-05T07:18:00.161Z,13.00
2022-08-05T07:25:54.345Z,17.25
2022-08-05T07:28:08.372Z,16.55
2022-08-05T07:30:41.260Z,18.27
2022-08-05T07:33:16.242Z,13.43
2022-08-05T07:36:05.387Z,17.92
2022-08-05T07:38:43.491Z,17.67
2022-08-05T07:42:14.526Z,20.23
2022-08-05T07:48:00.879Z,19.52
2022-08-05T07:50:33.480Z,20.55
2022-08-05T07:53:01.041Z,19.85
2022-08-05T07:56:04.740Z,15.57
2022-08-05T08:01:12.324Z,20.20
2022-08-05T08:03:44.271Z,18.92
2022-08-05T08:08:56.522Z,16.17
2022-08-05T08:11:27.767Z,15.10
2022-08-05T08:14:17.514Z,17.73
2022-08-05T08:16:50.721Z,18.38
2022-08-05T08:20:22.635Z,18.48
2022-08-05T08:22:15.924Z,16.52
2022-08-05T08:24:51.301Z,17.35
2022-08-05T08:32:28.027Z,12.90
2022-08-05T08:34:55.740Z,12.88
2022-08-05T08:37:28.070Z,20.63
2022-08-05T08:39:55.832Z,16.40
2022-08-05T08:42:34.140Z,17.95
2022-08-05T08:45:19.238Z,17.75
2022-08-05T08:52:03.127Z,17.30
2022-08-05T08:54:11.274Z,16.58
2022-08-05T08:56:47.893Z,15.80
2022-08-05T08:59:20.782Z,15.57
2022-08-05T09:01:57.054Z,18.98
2022-08-05T09:04:30.350Z,13.32
2022-08-05T09:07:00.381Z,15.57
2022-08-05T09:15:54.122Z,15.85
2022-08-05T09:18:22.505Z,17.15
2022-08-05T09:20:51.214Z,17.88
2022-08-05T09:23:21.794Z,16.23
2022-08-05T09:26:09.770Z,17.38
2022-08-05T09:28:39.801Z,14.90
2022-08-05T09:31:44.023Z,15.57
2022-08-05T09:36:59.916Z,12.60
2022-08-05T09:39:45.116Z,16.60
2022-08-05T09:42:23.898Z,10.82
2022-08-05T09:47:55.689Z,12.65
2022-08-05T09:50:44.111Z,13.27
2022-08-05T09:53:22.902Z,12.60
2022-08-05T10:03:56.762Z,16.52
2022-08-05T10:06:21.014Z,17.37
2022-08-05T10:08:50.307Z,12.65
2022-08-05T10:11:21.641Z,15.23
2022-08-05T10:13:54.680Z,16.33
2022-08-05T10:16:41.573Z,15.10
2022-08-05T10:19:13.548Z,18.35
2022-08-05T10:30:06.419Z,9.80
2022-08-05T10:32:52.877Z,14.32
2022-08-05T10:35:40.399Z,18.15
2022-08-05T10:38:12.795Z,12.57
2022-08-05T10:40:58.069Z,18.13
2022-08-05T10:43:45.583Z,18.33
2022-08-05T10:46:23.751Z,16.88
2022-08-05T10:54:05.966Z,19.90
2022-08-05T10:57:00.228Z,16.10
2022-08-05T11:00:02.873Z,17.80
2022-08-05T11:02:37.609Z,15.48
2022-08-05T11:05:10.510Z,16.50
2022-08-05T11:08:02.952Z,14.85
2022-08-05T11:20:17.442Z,16.67
2022-08-05T11:22:53.975Z,11.80
2022-08-05T11:26:04.839Z,13.45
2022-08-05T11:28:25.911Z,11.00
2022-08-05T11:30:58.407Z,14.23
2022-08-05T11:33:46.503Z,13.80
2022-08-05T11:41:35.122Z,12.52
2022-08-05T11:44:05.460Z,11.25
2022-08-05T11:46:37.940Z,11.50
2022-08-05T11:49:28.548Z,10.73
2022-08-05T11:51:57.411Z,9.63
2022-08-05T11:54:40.714Z,8.57
2022-08-05T11:57:24.876Z,9.60
2022-08-05T12:08:03.379Z,10.77
2022-08-05T12:10:43.589Z,7.40
2022-08-05T12:13:18.481Z,8.52
2022-08-05T12:15:56.260Z,9.15
2022-08-05T12:18:38.849Z,8.60
2022-08-05T12:21:15.386Z,8.57
2022-08-05T12:24:04.359Z,10.73
2022-08-05T12:31:57.425Z,11.32
2022-08-05T12:34:30.218Z,8.27
2022-08-05T12:37:10.470Z,12.07
2022-08-05T12:39:44.873Z,9.40
2022-08-05T12:42:21.556Z,11.65
2022-08-05T12:44:52.954Z,9.50
2022-08-05T12:50:21.373Z,6.18
2022-08-05T12:53:01.360Z,11.98
2022-08-05T12:58:49.373Z,10.23
2022-08-05T13:02:02.435Z,12.10
2022-08-05T13:03:42.019Z,15.80
2022-08-05T13:08:57.687Z,6.95
2022-08-05T13:12:02.101Z,6.97
2022-08-05T13:14:36.196Z,10.45
2022-08-05T13:17:15.747Z,11.90
2022-08-05T13:20:06.868Z,9.73
2022-08-05T13:22:40.151Z,12.65
2022-08-05T13:30:32.879Z,9.23
2022-08-05T13:33:04.438Z,10.45
2022-08-05T13:35:47.449Z,8.32
2022-08-05T13:38:30.473Z,9.27
2022-08-05T13:41:01.960Z,6.60
2022-08-05T13:43:45.165Z,7.55
2022-08-05T13:46:35.677Z,6.43
2022-08-05T13:51:46.578Z,5.60
2022-08-05T13:54:17.189Z,9.25
2022-08-05T13:56:52.004Z,7.43
2022-08-05T13:59:24.905Z,8.35
2022-08-05T14:01:59.865Z,9.75
2022-08-05T14:04:52.084Z,7.78
2022-08-05T14:08:00.783Z,8.00
2022-08-05T14:14:30.866Z,6.70
2022-08-05T14:17:01.525Z,7.82
2022-08-05T14:19:30.433Z,9.55
2022-08-05T14:22:17.838Z,9.70
2022-08-05T14:24:47.704Z,10.68
2022-08-05T14:27:18.681Z,6.55
2022-08-05T14:32:31.281Z,7.28
2022-08-05T14:35:00.780Z,6.93
2022-08-05T14:37:42.201Z,6.53
2022-08-05T14:40:16.850Z,7.10
2022-08-05T14:42:44.537Z,10.23
2022-08-05T14:45:12.127Z,8.40
2022-08-05T14:48:02.698Z,7.20
2022-08-05T14:55:42.260Z,6.65
2022-08-05T14:58:13.840Z,8.50
2022-08-05T15:00:58.416Z,7.60
2022-08-05T15:03:33.799Z,8.25
2022-08-05T15:06:15.296Z,6.28
2022-08-05T15:09:01.330Z,6.90
2022-08-05T15:16:51.092Z,7.25
2022-08-05T15:19:23.618Z,8.32
2022-08-05T15:21:51.443Z,13.32
2022-08-05T15:24:20.713Z,6.47
2022-08-05T15:26:50.515Z,18.48
2022-08-05T15:29:17.910Z,11.45
2022-08-05T15:31:53.123Z,11.18
2022-08-05T15:36:58.641Z,11.27
2022-08-05T15:41:02.518Z,9.35
2022-08-05T15:42:56.189Z,9.00
2022-08-05T15:45:13.077Z,8.10
2022-08-05T15:47:42.826Z,8.40
2022-08-05T15:50:15.120Z,11.15
2022-08-05T15:56:02.090Z,14.85
2022-08-05T15:58:16.351Z,6.88
2022-08-05T16:01:03.452Z,9.77
2022-08-05T16:03:32.629Z,8.68
2022-08-05T16:06:02.366Z,8.87
2022-08-05T16:08:31.190Z,7.40
2022-08-05T16:11:00.537Z,7.78
2022-08-05T16:16:25.409Z,12.05
2022-08-05T16:18:53.146Z,6.65
2022-08-05T16:22:00.619Z,11.68
2022-08-05T16:24:12.782Z,12.38
2022-08-05T16:27:03.475Z,9.35
2022-08-05T16:29:37.366Z,7.85
2022-08-05T16:36:51.424Z,10.23
2022-08-05T16:39:22.121Z,10.60
2022-08-05T16:42:14.782Z,11.82
2022-08-05T16:44:44.434Z,12.93
2022-08-05T16:47:28.682Z,14.32
2022-08-05T16:50:05.399Z,9.10
2022-08-05T16:57:50.479Z,12.73
2022-08-05T17:00:25.928Z,15.40
2022-08-05T17:03:03.858Z,14.48
2022-08-05T17:05:37.625Z,9.73
2022-08-05T17:08:05.208Z,9.30
2022-08-05T17:10:36.879Z,13.13
2022-08-05T17:13:05.661Z,8.60
2022-08-05T17:18:22.479Z,13.70
2022-08-05T17:20:51.222Z,11.57
2022-08-05T17:24:04.595Z,8.73
2022-08-05T17:26:09.631Z,16.40
2022-08-05T17:28:40.882Z,23.80
2022-08-05T17:31:24.650Z,18.30
2022-08-05T17:38:35.214Z,8.80
2022-08-05T17:41:02.758Z,13.23
2022-08-05T17:43:50.361Z,12.02
2022-08-05T17:46:21.215Z,10.95
2022-08-05T17:48:54.175Z,11.85
2022-08-05T17:51:22.353Z,12.85
2022-08-05T17:53:54.864Z,16.50
2022-08-05T17:56:22.940Z,18.48
2022-08-05T18:04:04.453Z,13.50
2022-08-05T18:06:33.459Z,12.57
2022-08-05T18:09:03.410Z,12.85
2022-08-05T18:11:33.126Z,9.35
2022-08-05T18:14:13.209Z,14.48
2022-08-05T18:16:46.817Z,14.23
2022-08-05T18:19:22.654Z,13.00
2022-08-05T18:25:33.112Z,21.85
2022-08-05T18:28:05.052Z,14.88
2022-08-05T18:30:33.628Z,16.08
2022-08-05T18:33:02.393Z,19.27
2022-08-05T18:36:01.126Z,18.67
2022-08-05T18:38:19.328Z,13.57
2022-08-05T18:41:58.150Z,17.80
2022-08-05T18:52:04.881Z,20.40
2022-08-05T18:54:21.435Z,15.00
2022-08-05T18:56:52.011Z,17.67
2022-08-05T18:59:44.060Z,15.83
2022-08-05T19:02:26.490Z,17.48
2022-08-05T19:05:02.210Z,20.52
2022-08-05T19:12:58.713Z,21.58
2022-08-05T19:15:58.876Z,17.27
2022-08-05T19:18:22.315Z,20.23
2022-08-05T19:20:53.085Z,21.02
2022-08-05T19:26:11.324Z,21.55
2022-08-05T19:31:51.034Z,16.50
2022-08-05T19:34:19.092Z,16.75
2022-08-05T19:36:50.002Z,17.38
2022-08-05T19:39:17.953Z,21.30
2022-08-05T19:42:07.363Z,22.25
2022-08-05T19:44:36.271Z,24.17
2022-08-05T19:47:10.166Z,20.08
2022-08-05T19:52:31.227Z,21.35
2022-08-05T19:55:06.831Z,18.73
2022-08-05T19:57:46.383Z,17.80
2022-08-05T20:00:24.388Z,21.48
2022-08-05T20:02:51.951Z,13.45
2022-08-05T20:05:24.490Z,18.25
2022-08-05T20:07:58.805Z,17.83
2022-08-05T20:20:51.374Z,18.80
2022-08-05T20:23:23.833Z,21.40
2022-08-05T20:26:16.070Z,24.35
2022-08-05T20:28:56.918Z,22.48
2022-08-05T20:31:42.123Z,17.73
2022-08-05T20:34:12.350Z,20.58
2022-08-05T20:41:45.057Z,21.35
2022-08-05T20:44:18.397Z,24.02
2022-08-05T20:46:50.163Z,26.05
2022-08-05T20:49:24.050Z,15.77
2022-08-05T20:51:53.698Z,20.83
2022-08-05T20:54:43.631Z,22.10
2022-08-05T21:00:21.199Z,26.75
2022-08-05T21:02:51.414Z,20.70
2022-08-05T21:05:22.069Z,22.60
2022-08-05T21:12:57.655Z,20.85
2022-08-05T21:15:37.223Z,25.88
2022-08-05T21:21:24.423Z,20.60
2022-08-05T21:23:52.275Z,16.27
2022-08-05T21:26:21.802Z,17.50
2022-08-05T21:28:53.938Z,19.25
2022-08-05T21:31:41.385Z,19.33
2022-08-05T21:34:12.488Z,20.73
2022-08-05T21:36:42.401Z,20.50
2022-08-05T21:47:54.777Z,21.00
2022-08-05T21:50:10.117Z,24.15
2022-08-05T21:52:47.353Z,17.55
2022-08-05T21:55:15.270Z,16.48
2022-08-05T21:57:43.200Z,16.85
2022-08-05T22:00:12.133Z,16.13
2022-08-05T22:02:43.603Z,18.27
2022-08-05T22:09:14.636Z,12.27
2022-08-05T22:11:46.577Z,16.90
2022-08-05T22:14:33.304Z,17.60
2022-08-05T22:17:05.386Z,18.52
2022-08-05T22:20:00.644Z,20.27
2022-08-05T22:22:26.887Z,19.52
2022-08-05T22:25:18.015Z,19.60
2022-08-05T22:34:59.231Z,22.80
2022-08-05T22:37:32.126Z,21.20
2022-08-05T22:40:20.612Z,24.00
2022-08-05T22:42:53.114Z,21.10
2022-08-05T22:45:26.431Z,23.20
2022-08-05T22:47:56.927Z,20.58
2022-08-05T22:58:03.421Z,22.10
2022-08-05T23:00:32.749Z,22.98
2022-08-05T23:03:04.313Z,19.08
2022-08-05T23:05:36.133Z,26.15
2022-08-05T23:08:04.150Z,26.00
2022-08-05T23:10:32.787Z,23.60
2022-08-05T23:13:03.886Z,21.00
2022-08-05T23:19:50.841Z,27.50
2022-08-05T23:22:27.291Z,21.90
2022-08-05T23:24:56.526Z,29.20
2022-08-05T23:27:31.320Z,22.48
2022-08-05T23:30:14.599Z,24.23
2022-08-05T23:32:45.261Z,22.77
2022-08-05T23:40:12.197Z,25.63
2022-08-05T23:42:41.725Z,26.38
2022-08-05T23:45:15.928Z,18.80
2022-08-05T23:47:47.726Z,24.63
2022-08-05T23:50:20.263Z,25.67
2022-08-05T23:52:51.500Z,24.90
2022-08-05T23:58:07.380Z,20.40
